sensor_id;sensor_type;location;lat;lon;timestamp;P1;durP1;ratioP1;P2;durP2;ratioP2
57663;SDS011;43493;53.098;6.064;2023-05-14T00:01:38;14.13;;;6.47;;
57663;SDS011;43493;53.098;6.064;2023-05-14T00:04:04;11.53;;;7.20;;
57663;SDS011;43493;53.098;6.064;2023-05-14T00:06:30;13.20;;;6.90;;
57663;SDS011;43493;53.098;6.064;2023-05-14T00:08:56;11.70;;;6.17;;
57663;SDS011;43493;53.098;6.064;2023-05-14T00:11:21;11.97;;;7.23;;
57663;SDS011;43493;53.098;6.064;2023-05-14T00:13:48;10.70;;;5.93;;
57663;SDS011;43493;53.098;6.064;2023-05-14T00:16:14;10.17;;;7.30;;
57663;SDS011;43493;53.098;6.064;2023-05-14T00:18:40;11.23;;;6.83;;
57663;SDS011;43493;53.098;6.064;2023-05-14T00:21:06;15.37;;;8.73;;
57663;SDS011;43493;53.098;6.064;2023-05-14T00:23:31;14.00;;;8.20;;
57663;SDS011;43493;53.098;6.064;2023-05-14T00:25:57;13.33;;;6.90;;
57663;SDS011;43493;53.098;6.064;2023-05-14T00:28:23;12.23;;;8.43;;
57663;SDS011;43493;53.098;6.064;2023-05-14T00:30:49;13.50;;;8.77;;
57663;SDS011;43493;53.098;6.064;2023-05-14T00:33:15;13.33;;;8.80;;
57663;SDS011;43493;53.098;6.064;2023-05-14T00:35:41;14.67;;;9.53;;
57663;SDS011;43493;53.098;6.064;2023-05-14T00:38:06;13.53;;;9.87;;
57663;SDS011;43493;53.098;6.064;2023-05-14T00:40:32;12.53;;;9.73;;
57663;SDS011;43493;53.098;6.064;2023-05-14T00:42:58;16.53;;;9.10;;
57663;SDS011;43493;53.098;6.064;2023-05-14T00:45:24;15.53;;;10.10;;
57663;SDS011;43493;53.098;6.064;2023-05-14T00:47:50;14.13;;;10.43;;
57663;SDS011;43493;53.098;6.064;2023-05-14T00:50:16;13.60;;;10.23;;
57663;SDS011;43493;53.098;6.064;2023-05-14T00:52:42;13.43;;;9.60;;
57663;SDS011;43493;53.098;6.064;2023-05-14T00:55:08;15.00;;;9.77;;
57663;SDS011;43493;53.098;6.064;2023-05-14T00:57:37;12.97;;;9.93;;
57663;SDS011;43493;53.098;6.064;2023-05-14T01:00:03;13.03;;;9.80;;
57663;SDS011;43493;53.098;6.064;2023-05-14T01:02:29;12.37;;;9.70;;
57663;SDS011;43493;53.098;6.064;2023-05-14T01:04:55;12.57;;;9.97;;
57663;SDS011;43493;53.098;6.064;2023-05-14T01:15:10;14.00;;;9.97;;
57663;SDS011;43493;53.098;6.064;2023-05-14T01:17:45;12.47;;;9.23;;
57663;SDS011;43493;53.098;6.064;2023-05-14T01:20:15;15.67;;;10.47;;
57663;SDS011;43493;53.098;6.064;2023-05-14T01:22:41;11.23;;;9.27;;
57663;SDS011;43493;53.098;6.064;2023-05-14T01:25:07;15.73;;;10.23;;
57663;SDS011;43493;53.098;6.064;2023-05-14T01:32:57;15.27;;;9.47;;
57663;SDS011;43493;53.098;6.064;2023-05-14T01:35:27;11.80;;;9.63;;
57663;SDS011;43493;53.098;6.064;2023-05-14T01:37:54;16.00;;;9.47;;
57663;SDS011;43493;53.098;6.064;2023-05-14T01:40:22;12.43;;;8.37;;
57663;SDS011;43493;53.098;6.064;2023-05-14T01:42:49;15.40;;;8.97;;
57663;SDS011;43493;53.098;6.064;2023-05-14T01:45:19;12.30;;;8.90;;
57663;SDS011;43493;53.098;6.064;2023-05-14T01:47:45;14.47;;;9.00;;
57663;SDS011;43493;53.098;6.064;2023-05-14T01:50:11;13.23;;;8.87;;
57663;SDS011;43493;53.098;6.064;2023-05-14T01:52:36;14.00;;;9.07;;
57663;SDS011;43493;53.098;6.064;2023-05-14T01:55:02;14.87;;;9.03;;
57663;SDS011;43493;53.098;6.064;2023-05-14T01:57:29;12.70;;;8.17;;
57663;SDS011;43493;53.098;6.064;2023-05-14T01:59:55;15.10;;;9.07;;
57663;SDS011;43493;53.098;6.064;2023-05-14T02:02:21;13.03;;;8.73;;
57663;SDS011;43493;53.098;6.064;2023-05-14T02:04:46;12.30;;;8.67;;
57663;SDS011;43493;53.098;6.064;2023-05-14T02:07:12;14.23;;;8.50;;
57663;SDS011;43493;53.098;6.064;2023-05-14T02:09:38;12.77;;;8.60;;
57663;SDS011;43493;53.098;6.064;2023-05-14T02:12:05;10.57;;;7.67;;
57663;SDS011;43493;53.098;6.064;2023-05-14T02:14:32;13.30;;;8.13;;
57663;SDS011;43493;53.098;6.064;2023-05-14T02:16:57;12.83;;;8.30;;
57663;SDS011;43493;53.098;6.064;2023-05-14T02:19:23;12.63;;;8.20;;
57663;SDS011;43493;53.098;6.064;2023-05-14T02:21:49;13.03;;;8.20;;
57663;SDS011;43493;53.098;6.064;2023-05-14T02:24:15;14.77;;;8.20;;
57663;SDS011;43493;53.098;6.064;2023-05-14T02:26:40;12.70;;;7.67;;
57663;SDS011;43493;53.098;6.064;2023-05-14T02:29:06;14.30;;;8.40;;
57663;SDS011;43493;53.098;6.064;2023-05-14T02:31:32;16.27;;;8.87;;
57663;SDS011;43493;53.098;6.064;2023-05-14T02:33:59;13.17;;;8.63;;
57663;SDS011;43493;53.098;6.064;2023-05-14T02:36:26;16.43;;;9.30;;
57663;SDS011;43493;53.098;6.064;2023-05-14T02:38:51;14.90;;;9.30;;
57663;SDS011;43493;53.098;6.064;2023-05-14T02:41:17;20.47;;;11.03;;
57663;SDS011;43493;53.098;6.064;2023-05-14T02:43:43;16.87;;;10.30;;
57663;SDS011;43493;53.098;6.064;2023-05-14T02:46:09;17.77;;;11.07;;
57663;SDS011;43493;53.098;6.064;2023-05-14T02:48:35;17.60;;;10.67;;
57663;SDS011;43493;53.098;6.064;2023-05-14T02:51:01;16.03;;;11.47;;
57663;SDS011;43493;53.098;6.064;2023-05-14T02:53:26;15.63;;;10.43;;
57663;SDS011;43493;53.098;6.064;2023-05-14T02:55:52;16.07;;;11.47;;
57663;SDS011;43493;53.098;6.064;2023-05-14T02:58:18;19.27;;;11.73;;
57663;SDS011;43493;53.098;6.064;2023-05-14T03:00:43;19.30;;;10.90;;
57663;SDS011;43493;53.098;6.064;2023-05-14T03:03:09;16.97;;;10.87;;
57663;SDS011;43493;53.098;6.064;2023-05-14T03:05:35;18.80;;;11.13;;
57663;SDS011;43493;53.098;6.064;2023-05-14T03:08:01;17.77;;;11.17;;
57663;SDS011;43493;53.098;6.064;2023-05-14T03:10:28;16.30;;;11.20;;
57663;SDS011;43493;53.098;6.064;2023-05-14T03:12:53;16.17;;;11.20;;
57663;SDS011;43493;53.098;6.064;2023-05-14T03:15:19;21.67;;;11.70;;
57663;SDS011;43493;53.098;6.064;2023-05-14T03:17:45;14.60;;;11.17;;
57663;SDS011;43493;53.098;6.064;2023-05-14T03:20:11;17.63;;;10.93;;
57663;SDS011;43493;53.098;6.064;2023-05-14T03:22:37;20.37;;;11.07;;
57663;SDS011;43493;53.098;6.064;2023-05-14T03:25:03;16.70;;;10.83;;
57663;SDS011;43493;53.098;6.064;2023-05-14T03:27:28;18.40;;;10.37;;
57663;SDS011;43493;53.098;6.064;2023-05-14T03:29:54;16.87;;;10.40;;
57663;SDS011;43493;53.098;6.064;2023-05-14T03:32:20;19.07;;;9.97;;
57663;SDS011;43493;53.098;6.064;2023-05-14T03:34:46;20.13;;;9.37;;
57663;SDS011;43493;53.098;6.064;2023-05-14T03:37:11;14.90;;;9.70;;
57663;SDS011;43493;53.098;6.064;2023-05-14T03:39:37;16.77;;;9.13;;
57663;SDS011;43493;53.098;6.064;2023-05-14T03:42:03;19.53;;;8.40;;
57663;SDS011;43493;53.098;6.064;2023-05-14T03:44:29;14.57;;;7.17;;
57663;SDS011;43493;53.098;6.064;2023-05-14T03:46:54;17.03;;;7.67;;
57663;SDS011;43493;53.098;6.064;2023-05-14T03:49:20;15.33;;;6.53;;
57663;SDS011;43493;53.098;6.064;2023-05-14T03:51:46;17.50;;;7.27;;
57663;SDS011;43493;53.098;6.064;2023-05-14T03:54:11;17.73;;;8.00;;
57663;SDS011;43493;53.098;6.064;2023-05-14T03:56:37;17.73;;;7.23;;
57663;SDS011;43493;53.098;6.064;2023-05-14T03:59:03;16.63;;;8.10;;
57663;SDS011;43493;53.098;6.064;2023-05-14T04:01:29;15.03;;;7.70;;
57663;SDS011;43493;53.098;6.064;2023-05-14T04:03:54;18.63;;;8.03;;
57663;SDS011;43493;53.098;6.064;2023-05-14T04:06:20;19.10;;;8.53;;
57663;SDS011;43493;53.098;6.064;2023-05-14T04:08:46;19.57;;;7.60;;
57663;SDS011;43493;53.098;6.064;2023-05-14T04:11:11;16.53;;;7.77;;
57663;SDS011;43493;53.098;6.064;2023-05-14T04:13:37;16.03;;;7.50;;
57663;SDS011;43493;53.098;6.064;2023-05-14T04:16:03;15.57;;;7.10;;
57663;SDS011;43493;53.098;6.064;2023-05-14T04:18:29;15.00;;;7.67;;
57663;SDS011;43493;53.098;6.064;2023-05-14T04:20:58;17.17;;;7.20;;
57663;SDS011;43493;53.098;6.064;2023-05-14T04:23:25;16.37;;;7.47;;
57663;SDS011;43493;53.098;6.064;2023-05-14T04:25:50;16.30;;;8.10;;
57663;SDS011;43493;53.098;6.064;2023-05-14T04:28:16;19.87;;;7.20;;
57663;SDS011;43493;53.098;6.064;2023-05-14T04:30:42;19.53;;;8.07;;
57663;SDS011;43493;53.098;6.064;2023-05-14T04:33:07;14.03;;;7.53;;
57663;SDS011;43493;53.098;6.064;2023-05-14T04:35:33;26.80;;;10.13;;
57663;SDS011;43493;53.098;6.064;2023-05-14T04:37:59;21.17;;;8.67;;
57663;SDS011;43493;53.098;6.064;2023-05-14T04:40:24;18.07;;;8.20;;
57663;SDS011;43493;53.098;6.064;2023-05-14T04:42:50;18.43;;;7.97;;
57663;SDS011;43493;53.098;6.064;2023-05-14T04:45:16;17.27;;;7.97;;
57663;SDS011;43493;53.098;6.064;2023-05-14T04:47:42;18.67;;;7.90;;
57663;SDS011;43493;53.098;6.064;2023-05-14T04:50:09;14.20;;;6.50;;
57663;SDS011;43493;53.098;6.064;2023-05-14T04:52:34;19.53;;;7.87;;
57663;SDS011;43493;53.098;6.064;2023-05-14T04:55:00;20.60;;;7.20;;
57663;SDS011;43493;53.098;6.064;2023-05-14T04:57:26;18.70;;;7.00;;
57663;SDS011;43493;53.098;6.064;2023-05-14T04:59:52;19.57;;;6.60;;
57663;SDS011;43493;53.098;6.064;2023-05-14T05:02:17;15.20;;;7.53;;
57663;SDS011;43493;53.098;6.064;2023-05-14T05:04:43;17.10;;;6.43;;
57663;SDS011;43493;53.098;6.064;2023-05-14T05:07:09;15.67;;;7.90;;
57663;SDS011;43493;53.098;6.064;2023-05-14T05:09:35;13.03;;;6.23;;
57663;SDS011;43493;53.098;6.064;2023-05-14T05:12:00;14.70;;;6.57;;
57663;SDS011;43493;53.098;6.064;2023-05-14T05:14:26;14.57;;;6.73;;
57663;SDS011;43493;53.098;6.064;2023-05-14T05:16:52;12.70;;;6.90;;
57663;SDS011;43493;53.098;6.064;2023-05-14T05:19:17;16.33;;;6.83;;
57663;SDS011;43493;53.098;6.064;2023-05-14T05:21:43;16.93;;;6.97;;
57663;SDS011;43493;53.098;6.064;2023-05-14T05:24:09;15.80;;;7.17;;
57663;SDS011;43493;53.098;6.064;2023-05-14T05:26:35;12.73;;;6.40;;
57663;SDS011;43493;53.098;6.064;2023-05-14T05:29:01;16.97;;;7.30;;
57663;SDS011;43493;53.098;6.064;2023-05-14T05:31:28;15.53;;;6.67;;
57663;SDS011;43493;53.098;6.064;2023-05-14T05:33:55;16.03;;;6.30;;
57663;SDS011;43493;53.098;6.064;2023-05-14T05:36:21;14.87;;;6.87;;
57663;SDS011;43493;53.098;6.064;2023-05-14T05:38:47;15.57;;;6.40;;
57663;SDS011;43493;53.098;6.064;2023-05-14T05:41:12;13.30;;;6.33;;
57663;SDS011;43493;53.098;6.064;2023-05-14T05:43:38;13.23;;;5.57;;
57663;SDS011;43493;53.098;6.064;2023-05-14T05:46:05;16.33;;;7.37;;
57663;SDS011;43493;53.098;6.064;2023-05-14T05:48:31;14.90;;;5.77;;
57663;SDS011;43493;53.098;6.064;2023-05-14T05:50:57;16.77;;;5.93;;
57663;SDS011;43493;53.098;6.064;2023-05-14T05:53:22;14.83;;;5.33;;
57663;SDS011;43493;53.098;6.064;2023-05-14T05:55:48;16.43;;;5.50;;
57663;SDS011;43493;53.098;6.064;2023-05-14T05:58:16;12.43;;;4.83;;
57663;SDS011;43493;53.098;6.064;2023-05-14T06:00:42;15.37;;;5.30;;
57663;SDS011;43493;53.098;6.064;2023-05-14T06:03:08;14.63;;;4.77;;
57663;SDS011;43493;53.098;6.064;2023-05-14T06:05:35;13.53;;;4.67;;
57663;SDS011;43493;53.098;6.064;2023-05-14T06:08:00;11.03;;;4.40;;
57663;SDS011;43493;53.098;6.064;2023-05-14T06:10:27;11.93;;;4.43;;
57663;SDS011;43493;53.098;6.064;2023-05-14T06:12:52;13.87;;;4.93;;
57663;SDS011;43493;53.098;6.064;2023-05-14T06:15:18;14.43;;;5.40;;
57663;SDS011;43493;53.098;6.064;2023-05-14T06:17:44;12.43;;;4.40;;
57663;SDS011;43493;53.098;6.064;2023-05-14T06:20:10;23.27;;;8.87;;
57663;SDS011;43493;53.098;6.064;2023-05-14T06:22:36;15.20;;;5.57;;
57663;SDS011;43493;53.098;6.064;2023-05-14T06:25:02;15.13;;;5.20;;
57663;SDS011;43493;53.098;6.064;2023-05-14T06:27:28;17.47;;;5.57;;
57663;SDS011;43493;53.098;6.064;2023-05-14T06:29:54;14.20;;;5.83;;
57663;SDS011;43493;53.098;6.064;2023-05-14T06:32:20;15.17;;;5.13;;
57663;SDS011;43493;53.098;6.064;2023-05-14T06:34:46;12.33;;;5.40;;
57663;SDS011;43493;53.098;6.064;2023-05-14T06:37:11;14.40;;;6.63;;
57663;SDS011;43493;53.098;6.064;2023-05-14T06:39:37;17.57;;;6.23;;
57663;SDS011;43493;53.098;6.064;2023-05-14T06:42:03;15.53;;;7.87;;
57663;SDS011;43493;53.098;6.064;2023-05-14T06:44:29;14.00;;;5.60;;
57663;SDS011;43493;53.098;6.064;2023-05-14T06:46:55;13.73;;;6.57;;
57663;SDS011;43493;53.098;6.064;2023-05-14T06:49:21;15.37;;;5.83;;
57663;SDS011;43493;53.098;6.064;2023-05-14T06:51:47;11.90;;;6.00;;
57663;SDS011;43493;53.098;6.064;2023-05-14T06:54:13;12.90;;;5.50;;
57663;SDS011;43493;53.098;6.064;2023-05-14T06:56:39;10.00;;;4.80;;
57663;SDS011;43493;53.098;6.064;2023-05-14T06:59:04;13.40;;;5.07;;
57663;SDS011;43493;53.098;6.064;2023-05-14T07:01:30;15.27;;;5.17;;
57663;SDS011;43493;53.098;6.064;2023-05-14T07:03:56;12.90;;;4.73;;
57663;SDS011;43493;53.098;6.064;2023-05-14T07:06:21;14.10;;;5.50;;
57663;SDS011;43493;53.098;6.064;2023-05-14T07:08:47;13.07;;;6.00;;
57663;SDS011;43493;53.098;6.064;2023-05-14T07:11:13;12.77;;;5.30;;
57663;SDS011;43493;53.098;6.064;2023-05-14T07:13:39;11.63;;;4.90;;
57663;SDS011;43493;53.098;6.064;2023-05-14T07:16:06;11.93;;;5.27;;
57663;SDS011;43493;53.098;6.064;2023-05-14T07:18:35;13.93;;;6.17;;
57663;SDS011;43493;53.098;6.064;2023-05-14T07:21:01;12.67;;;4.23;;
57663;SDS011;43493;53.098;6.064;2023-05-14T07:23:30;13.17;;;5.30;;
57663;SDS011;43493;53.098;6.064;2023-05-14T07:25:57;14.87;;;5.50;;
57663;SDS011;43493;53.098;6.064;2023-05-14T07:28:23;12.63;;;4.73;;
57663;SDS011;43493;53.098;6.064;2023-05-14T07:30:49;14.43;;;5.00;;
57663;SDS011;43493;53.098;6.064;2023-05-14T07:33:14;14.40;;;4.63;;
57663;SDS011;43493;53.098;6.064;2023-05-14T07:35:40;10.73;;;4.50;;
57663;SDS011;43493;53.098;6.064;2023-05-14T07:38:06;13.17;;;5.60;;
57663;SDS011;43493;53.098;6.064;2023-05-14T07:40:32;11.00;;;4.83;;
57663;SDS011;43493;53.098;6.064;2023-05-14T07:42:57;8.43;;;4.20;;
57663;SDS011;43493;53.098;6.064;2023-05-14T07:45:23;9.27;;;4.40;;
57663;SDS011;43493;53.098;6.064;2023-05-14T07:47:49;13.13;;;4.40;;
57663;SDS011;43493;53.098;6.064;2023-05-14T07:50:18;13.90;;;4.67;;
57663;SDS011;43493;53.098;6.064;2023-05-14T07:52:44;13.47;;;4.33;;
57663;SDS011;43493;53.098;6.064;2023-05-14T07:55:11;10.70;;;4.23;;
57663;SDS011;43493;53.098;6.064;2023-05-14T07:57:37;10.70;;;4.60;;
57663;SDS011;43493;53.098;6.064;2023-05-14T08:00:03;11.43;;;4.80;;
57663;SDS011;43493;53.098;6.064;2023-05-14T08:02:32;12.13;;;4.13;;
57663;SDS011;43493;53.098;6.064;2023-05-14T08:04:58;11.30;;;4.47;;
57663;SDS011;43493;53.098;6.064;2023-05-14T08:07:24;12.57;;;4.20;;
57663;SDS011;43493;53.098;6.064;2023-05-14T08:09:51;11.17;;;3.80;;
57663;SDS011;43493;53.098;6.064;2023-05-14T08:12:17;10.40;;;3.80;;
57663;SDS011;43493;53.098;6.064;2023-05-14T08:14:43;11.07;;;4.77;;
57663;SDS011;43493;53.098;6.064;2023-05-14T08:17:09;13.63;;;4.40;;
57663;SDS011;43493;53.098;6.064;2023-05-14T08:19:34;11.77;;;4.30;;
57663;SDS011;43493;53.098;6.064;2023-05-14T08:22:00;14.17;;;4.93;;
57663;SDS011;43493;53.098;6.064;2023-05-14T08:24:26;12.33;;;4.37;;
57663;SDS011;43493;53.098;6.064;2023-05-14T08:26:52;10.27;;;4.30;;
57663;SDS011;43493;53.098;6.064;2023-05-14T08:29:17;10.80;;;4.60;;
57663;SDS011;43493;53.098;6.064;2023-05-14T08:31:43;11.97;;;4.20;;
57663;SDS011;43493;53.098;6.064;2023-05-14T08:34:09;13.60;;;4.13;;
57663;SDS011;43493;53.098;6.064;2023-05-14T08:36:35;11.00;;;4.17;;
57663;SDS011;43493;53.098;6.064;2023-05-14T08:39:01;13.90;;;4.27;;
57663;SDS011;43493;53.098;6.064;2023-05-14T08:41:27;12.03;;;3.83;;
57663;SDS011;43493;53.098;6.064;2023-05-14T08:44:06;14.57;;;4.50;;
57663;SDS011;43493;53.098;6.064;2023-05-14T08:46:37;10.60;;;4.63;;
57663;SDS011;43493;53.098;6.064;2023-05-14T08:51:50;12.03;;;4.43;;
57663;SDS011;43493;53.098;6.064;2023-05-14T08:54:16;9.47;;;4.17;;
57663;SDS011;43493;53.098;6.064;2023-05-14T08:56:43;10.93;;;4.73;;
57663;SDS011;43493;53.098;6.064;2023-05-14T08:59:12;14.13;;;4.57;;
57663;SDS011;43493;53.098;6.064;2023-05-14T09:01:38;10.33;;;4.77;;
57663;SDS011;43493;53.098;6.064;2023-05-14T09:04:07;12.97;;;4.70;;
57663;SDS011;43493;53.098;6.064;2023-05-14T09:06:35;12.80;;;5.13;;
57663;SDS011;43493;53.098;6.064;2023-05-14T09:09:04;13.07;;;4.83;;
57663;SDS011;43493;53.098;6.064;2023-05-14T09:11:30;11.83;;;4.07;;
57663;SDS011;43493;53.098;6.064;2023-05-14T09:13:56;10.70;;;4.33;;
57663;SDS011;43493;53.098;6.064;2023-05-14T09:16:22;9.23;;;4.70;;
57663;SDS011;43493;53.098;6.064;2023-05-14T09:18:49;10.33;;;4.50;;
57663;SDS011;43493;53.098;6.064;2023-05-14T09:21:16;12.10;;;4.30;;
57663;SDS011;43493;53.098;6.064;2023-05-14T09:23:42;10.23;;;4.20;;
57663;SDS011;43493;53.098;6.064;2023-05-14T09:26:08;11.03;;;4.17;;
57663;SDS011;43493;53.098;6.064;2023-05-14T09:28:34;13.13;;;4.53;;
57663;SDS011;43493;53.098;6.064;2023-05-14T09:31:05;12.10;;;4.67;;
57663;SDS011;43493;53.098;6.064;2023-05-14T09:33:33;12.13;;;4.83;;
57663;SDS011;43493;53.098;6.064;2023-05-14T09:35:59;14.87;;;4.07;;
57663;SDS011;43493;53.098;6.064;2023-05-14T09:38:32;10.70;;;4.67;;
57663;SDS011;43493;53.098;6.064;2023-05-14T09:40:58;12.60;;;4.67;;
57663;SDS011;43493;53.098;6.064;2023-05-14T09:43:25;10.20;;;4.60;;
57663;SDS011;43493;53.098;6.064;2023-05-14T09:45:54;10.80;;;4.77;;
57663;SDS011;43493;53.098;6.064;2023-05-14T09:48:20;11.40;;;4.90;;
57663;SDS011;43493;53.098;6.064;2023-05-14T09:50:46;11.67;;;5.17;;
57663;SDS011;43493;53.098;6.064;2023-05-14T09:53:12;10.53;;;4.83;;
57663;SDS011;43493;53.098;6.064;2023-05-14T09:55:38;10.70;;;5.07;;
57663;SDS011;43493;53.098;6.064;2023-05-14T09:58:04;10.50;;;5.07;;
57663;SDS011;43493;53.098;6.064;2023-05-14T10:00:31;11.47;;;4.97;;
57663;SDS011;43493;53.098;6.064;2023-05-14T10:02:58;10.37;;;4.87;;
57663;SDS011;43493;53.098;6.064;2023-05-14T10:05:27;9.17;;;4.83;;
57663;SDS011;43493;53.098;6.064;2023-05-14T10:07:53;9.13;;;4.67;;
57663;SDS011;43493;53.098;6.064;2023-05-14T10:10:24;11.40;;;4.73;;
57663;SDS011;43493;53.098;6.064;2023-05-14T10:12:57;10.43;;;5.20;;
57663;SDS011;43493;53.098;6.064;2023-05-14T10:15:36;11.60;;;4.93;;
57663;SDS011;43493;53.098;6.064;2023-05-14T10:18:10;9.13;;;4.67;;
57663;SDS011;43493;53.098;6.064;2023-05-14T10:20:38;12.00;;;5.20;;
57663;SDS011;43493;53.098;6.064;2023-05-14T10:23:05;12.70;;;5.13;;
57663;SDS011;43493;53.098;6.064;2023-05-14T10:25:32;10.50;;;5.40;;
57663;SDS011;43493;53.098;6.064;2023-05-14T10:27:59;8.50;;;4.73;;
57663;SDS011;43493;53.098;6.064;2023-05-14T10:30:25;10.63;;;4.67;;
57663;SDS011;43493;53.098;6.064;2023-05-14T10:33:07;10.53;;;5.43;;
57663;SDS011;43493;53.098;6.064;2023-05-14T10:35:51;12.87;;;5.63;;
57663;SDS011;43493;53.098;6.064;2023-05-14T10:38:27;11.90;;;5.90;;
57663;SDS011;43493;53.098;6.064;2023-05-14T10:40:54;13.90;;;4.97;;
57663;SDS011;43493;53.098;6.064;2023-05-14T10:43:24;9.77;;;5.37;;
57663;SDS011;43493;53.098;6.064;2023-05-14T10:45:52;9.80;;;4.70;;
57663;SDS011;43493;53.098;6.064;2023-05-14T10:48:18;10.27;;;4.83;;
57663;SDS011;43493;53.098;6.064;2023-05-14T10:50:46;10.10;;;5.07;;
57663;SDS011;43493;53.098;6.064;2023-05-14T10:53:12;13.70;;;5.13;;
57663;SDS011;43493;53.098;6.064;2023-05-14T10:55:41;14.83;;;4.93;;
57663;SDS011;43493;53.098;6.064;2023-05-14T10:58:08;9.67;;;4.20;;
57663;SDS011;43493;53.098;6.064;2023-05-14T11:00:35;9.47;;;4.83;;
57663;SDS011;43493;53.098;6.064;2023-05-14T11:03:05;12.20;;;4.87;;
57663;SDS011;43493;53.098;6.064;2023-05-14T11:05:31;10.50;;;6.07;;
57663;SDS011;43493;53.098;6.064;2023-05-14T11:07:59;11.80;;;4.90;;
57663;SDS011;43493;53.098;6.064;2023-05-14T11:10:29;9.67;;;5.00;;
57663;SDS011;43493;53.098;6.064;2023-05-14T11:12:56;13.17;;;5.27;;
57663;SDS011;43493;53.098;6.064;2023-05-14T11:15:23;8.73;;;4.73;;
57663;SDS011;43493;53.098;6.064;2023-05-14T11:17:50;11.60;;;5.57;;
57663;SDS011;43493;53.098;6.064;2023-05-14T11:20:17;11.00;;;4.83;;
57663;SDS011;43493;53.098;6.064;2023-05-14T11:22:45;9.30;;;5.23;;
57663;SDS011;43493;53.098;6.064;2023-05-14T11:25:12;10.70;;;5.20;;
57663;SDS011;43493;53.098;6.064;2023-05-14T11:27:39;11.57;;;6.73;;
57663;SDS011;43493;53.098;6.064;2023-05-14T11:30:16;11.17;;;5.30;;
57663;SDS011;43493;53.098;6.064;2023-05-14T11:32:43;11.43;;;5.00;;
57663;SDS011;43493;53.098;6.064;2023-05-14T11:35:10;7.50;;;4.97;;
57663;SDS011;43493;53.098;6.064;2023-05-14T11:37:37;10.60;;;5.70;;
57663;SDS011;43493;53.098;6.064;2023-05-14T11:40:06;8.93;;;5.30;;
57663;SDS011;43493;53.098;6.064;2023-05-14T11:42:35;8.07;;;4.80;;
57663;SDS011;43493;53.098;6.064;2023-05-14T11:45:01;10.73;;;5.27;;
57663;SDS011;43493;53.098;6.064;2023-05-14T11:47:27;10.00;;;5.23;;
57663;SDS011;43493;53.098;6.064;2023-05-14T11:49:53;8.07;;;5.33;;
57663;SDS011;43493;53.098;6.064;2023-05-14T11:52:19;8.70;;;5.30;;
57663;SDS011;43493;53.098;6.064;2023-05-14T11:54:46;9.27;;;5.37;;
57663;SDS011;43493;53.098;6.064;2023-05-14T11:57:20;12.90;;;5.43;;
57663;SDS011;43493;53.098;6.064;2023-05-14T11:59:47;8.23;;;4.80;;
57663;SDS011;43493;53.098;6.064;2023-05-14T12:02:14;10.30;;;5.50;;
57663;SDS011;43493;53.098;6.064;2023-05-14T12:04:42;9.27;;;4.50;;
57663;SDS011;43493;53.098;6.064;2023-05-14T12:07:09;8.40;;;4.27;;
57663;SDS011;43493;53.098;6.064;2023-05-14T12:09:36;11.93;;;4.97;;
57663;SDS011;43493;53.098;6.064;2023-05-14T12:12:07;11.20;;;5.23;;
57663;SDS011;43493;53.098;6.064;2023-05-14T12:14:36;11.77;;;4.60;;
57663;SDS011;43493;53.098;6.064;2023-05-14T12:17:08;10.83;;;4.57;;
57663;SDS011;43493;53.098;6.064;2023-05-14T12:19:39;7.47;;;4.00;;
57663;SDS011;43493;53.098;6.064;2023-05-14T12:22:06;9.63;;;4.43;;
57663;SDS011;43493;53.098;6.064;2023-05-14T12:24:33;9.33;;;4.53;;
57663;SDS011;43493;53.098;6.064;2023-05-14T12:26:59;10.43;;;4.60;;
57663;SDS011;43493;53.098;6.064;2023-05-14T12:29:26;12.67;;;5.60;;
57663;SDS011;43493;53.098;6.064;2023-05-14T12:31:52;12.57;;;5.30;;
57663;SDS011;43493;53.098;6.064;2023-05-14T12:34:17;14.50;;;5.50;;
57663;SDS011;43493;53.098;6.064;2023-05-14T12:36:43;10.47;;;4.90;;
57663;SDS011;43493;53.098;6.064;2023-05-14T12:39:10;12.93;;;5.73;;
57663;SDS011;43493;53.098;6.064;2023-05-14T12:41:36;11.43;;;5.00;;
57663;SDS011;43493;53.098;6.064;2023-05-14T12:44:02;11.17;;;4.47;;
57663;SDS011;43493;53.098;6.064;2023-05-14T12:46:29;10.90;;;4.53;;
57663;SDS011;43493;53.098;6.064;2023-05-14T12:48:55;11.13;;;4.77;;
57663;SDS011;43493;53.098;6.064;2023-05-14T12:51:21;8.37;;;4.20;;
57663;SDS011;43493;53.098;6.064;2023-05-14T12:53:47;8.50;;;4.53;;
57663;SDS011;43493;53.098;6.064;2023-05-14T12:56:13;7.97;;;4.27;;
57663;SDS011;43493;53.098;6.064;2023-05-14T12:58:40;9.27;;;4.57;;
57663;SDS011;43493;53.098;6.064;2023-05-14T13:01:06;10.20;;;4.10;;
57663;SDS011;43493;53.098;6.064;2023-05-14T13:03:31;8.07;;;4.43;;
57663;SDS011;43493;53.098;6.064;2023-05-14T13:05:57;9.00;;;4.80;;
57663;SDS011;43493;53.098;6.064;2023-05-14T13:08:24;10.43;;;4.77;;
57663;SDS011;43493;53.098;6.064;2023-05-14T13:10:53;9.83;;;4.40;;
57663;SDS011;43493;53.098;6.064;2023-05-14T13:13:20;10.83;;;4.43;;
57663;SDS011;43493;53.098;6.064;2023-05-14T13:15:46;10.67;;;4.60;;
57663;SDS011;43493;53.098;6.064;2023-05-14T13:18:12;9.70;;;4.70;;
57663;SDS011;43493;53.098;6.064;2023-05-14T13:20:38;7.60;;;4.03;;
57663;SDS011;43493;53.098;6.064;2023-05-14T13:23:04;12.47;;;4.67;;
57663;SDS011;43493;53.098;6.064;2023-05-14T13:25:30;7.70;;;4.20;;
57663;SDS011;43493;53.098;6.064;2023-05-14T13:27:56;7.67;;;4.33;;
57663;SDS011;43493;53.098;6.064;2023-05-14T13:30:22;11.00;;;5.63;;
57663;SDS011;43493;53.098;6.064;2023-05-14T13:32:47;9.33;;;4.40;;
57663;SDS011;43493;53.098;6.064;2023-05-14T13:35:13;6.57;;;3.13;;
57663;SDS011;43493;53.098;6.064;2023-05-14T13:37:39;6.47;;;3.33;;
57663;SDS011;43493;53.098;6.064;2023-05-14T13:40:05;10.13;;;3.73;;
57663;SDS011;43493;53.098;6.064;2023-05-14T13:42:34;9.33;;;4.70;;
57663;SDS011;43493;53.098;6.064;2023-05-14T13:45:00;7.27;;;3.67;;
57663;SDS011;43493;53.098;6.064;2023-05-14T13:47:26;8.97;;;4.43;;
57663;SDS011;43493;53.098;6.064;2023-05-14T13:49:52;6.90;;;4.17;;
57663;SDS011;43493;53.098;6.064;2023-05-14T13:52:19;10.80;;;5.00;;
57663;SDS011;43493;53.098;6.064;2023-05-14T13:54:45;11.00;;;4.60;;
57663;SDS011;43493;53.098;6.064;2023-05-14T13:57:11;10.17;;;4.60;;
57663;SDS011;43493;53.098;6.064;2023-05-14T13:59:37;12.30;;;5.43;;
57663;SDS011;43493;53.098;6.064;2023-05-14T14:02:03;10.40;;;4.10;;
57663;SDS011;43493;53.098;6.064;2023-05-14T14:04:29;10.50;;;4.40;;
57663;SDS011;43493;53.098;6.064;2023-05-14T14:06:55;10.60;;;5.27;;
57663;SDS011;43493;53.098;6.064;2023-05-14T14:09:21;7.77;;;4.10;;
57663;SDS011;43493;53.098;6.064;2023-05-14T14:11:47;8.37;;;4.40;;
57663;SDS011;43493;53.098;6.064;2023-05-14T14:14:13;8.90;;;4.23;;
57663;SDS011;43493;53.098;6.064;2023-05-14T14:16:38;10.50;;;4.47;;
57663;SDS011;43493;53.098;6.064;2023-05-14T14:19:05;8.27;;;4.50;;
57663;SDS011;43493;53.098;6.064;2023-05-14T14:21:31;9.77;;;4.43;;
57663;SDS011;43493;53.098;6.064;2023-05-14T14:23:58;13.97;;;5.03;;
57663;SDS011;43493;53.098;6.064;2023-05-14T14:26:24;12.30;;;5.23;;
57663;SDS011;43493;53.098;6.064;2023-05-14T14:28:51;10.43;;;4.87;;
57663;SDS011;43493;53.098;6.064;2023-05-14T14:31:17;8.47;;;4.20;;
57663;SDS011;43493;53.098;6.064;2023-05-14T14:33:44;7.97;;;5.07;;
57663;SDS011;43493;53.098;6.064;2023-05-14T14:36:10;11.23;;;5.67;;
57663;SDS011;43493;53.098;6.064;2023-05-14T14:38:36;10.17;;;5.20;;
57663;SDS011;43493;53.098;6.064;2023-05-14T14:41:03;8.43;;;4.93;;
57663;SDS011;43493;53.098;6.064;2023-05-14T14:43:31;10.37;;;5.97;;
57663;SDS011;43493;53.098;6.064;2023-05-14T14:45:57;10.13;;;5.00;;
57663;SDS011;43493;53.098;6.064;2023-05-14T14:48:27;9.53;;;5.50;;